Time,TemperatureF,DewpointF,PressureIn,WindDirection,WindDirectionDegrees,WindSpeedMPH,WindSpeedGustMPH,Humidity,HourlyPrecipIn,Conditions,Clouds,dailyrainin,SoftwareType,DateUTC
2013-08-12 00:09:00,74.0,73.0,30.03,WNW,296,0.0,1.0,95,0.00,,,0.00,weatherlink.com 1.10,2013-08-12 04:09:00,
2013-08-12 00:24:00,73.7,72.0,30.03,WNW,296,1.0,2.0,95,0.00,,,0.00,weatherlink.com 1.10,2013-08-12 04:24:00,
2013-08-12 00:39:00,73.5,72.0,30.03,North,5,0.0,2.0,95,0.00,,,0.00,weatherlink.com 1.10,2013-08-12 04:39:00,
2013-08-12 00:54:00,73.2,72.0,30.04,North,5,0.0,2.0,95,0.00,,,0.00,weatherlink.com 1.10,2013-08-12 04:54:00,
2013-08-12 01:09:00,72.8,71.0,30.04,North,5,0.0,1.0,95,0.00,,,0.00,weatherlink.com 1.10,2013-08-12 05:09:00,
2013-08-12 01:24:00,72.7,71.0,30.04,North,5,0.0,1.0,95,0.00,,,0.00,weatherlink.com 1.10,2013-08-12 05:24:00,
2013-08-12 01:39:00,72.3,71.0,30.03,North,5,1.0,1.0,95,0.00,,,0.00,weatherlink.com 1.10,2013-08-12 05:39:00,
2013-08-12 01:54:00,72.2,71.0,30.02,North,5,1.0,2.0,95,0.00,,,0.00,weatherlink.com 1.10,2013-08-12 05:54:00,
2013-08-12 02:09:00,72.1,70.0,30.02,North,5,0.0,1.0,94,0.00,,,0.00,weatherlink.com 1.10,2013-08-12 06:09:00,
2013-08-12 02:24:00,71.8,70.0,30.02,North,5,0.0,0.0,94,0.00,,,0.00,weatherlink.com 1.10,2013-08-12 06:24:00,
2013-08-12 02:39:00,72.2,70.0,30.02,North,5,0.0,1.0,94,0.00,,,0.00,weatherlink.com 1.10,2013-08-12 06:39:00,
2013-08-12 02:54:00,72.2,71.0,30.02,North,5,0.0,1.0,95,0.00,,,0.00,weatherlink.com 1.10,2013-08-12 06:54:00,
2013-08-12 03:09:00,71.7,70.0,30.01,North,5,0.0,1.0,95,0.00,,,0.00,weatherlink.com 1.10,2013-08-12 07:09:00,
2013-08-12 03:24:00,72.6,71.0,30.01,SW,228,0.0,3.0,94,0.00,,,0.00,weatherlink.com 1.10,2013-08-12 07:24:00,
2013-08-12 03:39:00,72.2,71.0,30.01,SW,228,0.0,2.0,95,0.00,,,0.00,weatherlink.com 1.10,2013-08-12 07:39:00,
2013-08-12 03:54:00,71.7,70.0,30.02,SW,228,0.0,1.0,95,0.00,,,0.00,weatherlink.com 1.10,2013-08-12 07:54:00,
2013-08-12 04:09:00,71.6,70.0,30.02,SW,228,0.0,1.0,95,0.00,,,0.00,weatherlink.com 1.10,2013-08-12 08:09:00,
2013-08-12 04:24:00,71.2,70.0,30.01,SW,228,0.0,0.0,95,0.00,,,0.00,weatherlink.com 1.10,2013-08-12 08:24:00,
2013-08-12 04:39:00,71.0,70.0,30.01,SW,228,0.0,1.0,95,0.00,,,0.00,weatherlink.com 1.10,2013-08-12 08:39:00,
2013-08-12 04:54:00,70.8,69.0,30.02,SW,228,0.0,1.0,95,0.00,,,0.00,weatherlink.com 1.10,2013-08-12 08:54:00,
2013-08-12 05:09:00,70.7,69.0,30.01,SW,228,0.0,1.0,94,0.00,,,0.00,weatherlink.com 1.10,2013-08-12 09:09:00,
2013-08-12 05:24:00,70.8,69.0,30.02,SW,228,1.0,1.0,94,0.00,,,0.00,weatherlink.com 1.10,2013-08-12 09:24:00,
2013-08-12 05:39:00,70.7,69.0,30.02,SW,228,0.0,1.0,94,0.00,,,0.00,weatherlink.com 1.10,2013-08-12 09:39:00,
2013-08-12 05:55:00,70.2,69.0,30.02,SW,228,0.0,1.0,95,0.00,,,0.00,weatherlink.com 1.10,2013-08-12 09:55:00,
2013-08-12 06:10:00,70.2,69.0,30.02,SW,228,0.0,0.0,95,0.00,,,0.00,weatherlink.com 1.10,2013-08-12 10:10:00,
2013-08-12 06:25:00,70.3,69.0,30.02,SW,228,1.0,2.0,95,0.00,,,0.00,weatherlink.com 1.10,2013-08-12 10:25:00,
2013-08-12 06:40:00,70.1,68.0,30.03,SW,228,1.0,1.0,94,0.00,,,0.00,weatherlink.com 1.10,2013-08-12 10:40:00,
2013-08-12 06:55:00,70.1,68.0,30.03,SW,228,0.0,1.0,94,0.00,,,0.00,weatherlink.com 1.10,2013-08-12 10:55:00,
2013-08-12 07:10:00,70.3,69.0,30.03,SW,228,0.0,1.0,95,0.00,,,0.00,weatherlink.com 1.10,2013-08-12 11:10:00,
2013-08-12 07:25:00,70.4,69.0,30.03,SW,228,0.0,0.0,94,0.00,,,0.00,weatherlink.com 1.10,2013-08-12 11:25:00,
2013-08-12 07:40:00,70.8,69.0,30.04,NE,35,2.0,4.0,94,0.00,,,0.00,weatherlink.com 1.10,2013-08-12 11:40:00,
2013-08-12 07:55:00,71.4,70.0,30.04,NE,44,1.0,2.0,94,0.00,,,0.00,weatherlink.com 1.10,2013-08-12 11:55:00,
2013-08-12 08:10:00,71.7,70.0,30.03,NE,44,0.0,0.0,94,0.00,,,0.00,weatherlink.com 1.10,2013-08-12 12:10:00,
2013-08-12 08:25:00,73.1,71.0,30.03,NW,325,2.0,4.0,94,0.00,,,0.00,weatherlink.com 1.10,2013-08-12 12:25:00,
2013-08-12 08:40:00,73.5,72.0,30.03,NNW,330,1.0,1.0,96,0.00,,,0.00,weatherlink.com 1.10,2013-08-12 12:40:00,
2013-08-12 08:55:00,74.4,73.0,30.03,NNW,330,1.0,2.0,96,0.00,,,0.00,weatherlink.com 1.10,2013-08-12 12:55:00,
2013-08-12 09:10:00,75.1,74.0,30.03,NNW,330,0.0,1.0,96,0.00,,,0.00,weatherlink.com 1.10,2013-08-12 13:10:00,
2013-08-12 09:25:00,76.0,74.0,30.03,SSW,197,0.0,2.0,94,0.00,,,0.00,weatherlink.com 1.10,2013-08-12 13:25:00,
2013-08-12 09:40:00,77.7,74.0,30.03,SSW,197,1.0,1.0,88,0.00,,,0.00,weatherlink.com 1.10,2013-08-12 13:40:00,
2013-08-12 09:55:00,78.4,74.0,30.03,SSW,197,1.0,1.0,85,0.00,,,0.00,weatherlink.com 1.10,2013-08-12 13:55:00,
2013-08-12 10:10:00,78.7,75.0,30.03,SSW,197,0.0,2.0,88,0.00,,,0.00,weatherlink.com 1.10,2013-08-12 14:10:00,
2013-08-12 10:25:00,79.2,73.0,30.03,WNW,296,2.0,2.0,81,0.00,,,0.00,weatherlink.com 1.10,2013-08-12 14:25:00,
2013-08-12 10:40:00,81.5,74.0,30.03,NE,53,0.0,3.0,79,0.00,,,0.00,weatherlink.com 1.10,2013-08-12 14:40:00,
2013-08-12 10:55:00,82.3,77.0,30.03,NNW,338,1.0,3.0,83,0.00,,,0.00,weatherlink.com 1.10,2013-08-12 14:55:00,
2013-08-12 11:10:00,83.1,75.0,30.03,West,281,1.0,2.0,76,0.00,,,0.00,weatherlink.com 1.10,2013-08-12 15:10:00,
2013-08-12 11:25:00,83.3,74.0,30.03,SSW,203,0.0,4.0,74,0.00,,,0.00,weatherlink.com 1.10,2013-08-12 15:25:00,
2013-08-12 11:40:00,84.6,76.0,30.03,NNE,18,1.0,4.0,75,0.00,,,0.00,weatherlink.com 1.10,2013-08-12 15:40:00,
2013-08-12 11:56:00,85.0,75.0,30.02,WSW,242,3.0,5.0,73,0.00,,,0.00,weatherlink.com 1.10,2013-08-12 15:56:00,
2013-08-12 12:11:00,85.0,75.0,30.02,West,262,2.0,5.0,71,0.00,,,0.00,weatherlink.com 1.10,2013-08-12 16:11:00,
2013-08-12 12:26:00,84.6,76.0,30.02,West,275,0.0,6.0,75,0.00,,,0.00,weatherlink.com 1.10,2013-08-12 16:26:00,
2013-08-12 12:41:00,85.8,76.0,30.01,ESE,115,0.0,5.0,72,0.00,,,0.00,weatherlink.com 1.10,2013-08-12 16:41:00,
2013-08-12 12:56:00,85.6,75.0,30.01,West,263,0.0,3.0,71,0.00,,,0.00,weatherlink.com 1.10,2013-08-12 16:56:00,
2013-08-12 13:11:00,85.9,76.0,30.01,SSW,208,1.0,4.0,73,0.00,,,0.00,weatherlink.com 1.10,2013-08-12 17:11:00,
2013-08-12 13:26:00,84.9,76.0,30.01,NE,47,1.0,5.0,74,0.00,,,0.00,weatherlink.com 1.10,2013-08-12 17:26:00,
2013-08-12 13:41:00,86.0,78.0,30.00,NNE,12,1.0,3.0,76,0.00,,,0.00,weatherlink.com 1.10,2013-08-12 17:41:00,
2013-08-12 13:56:00,87.4,77.0,30.00,WNW,300,1.0,5.0,72,0.00,,,0.00,weatherlink.com 1.10,2013-08-12 17:56:00,
2013-08-12 14:11:00,86.9,79.0,29.99,SE,145,1.0,2.0,76,0.00,,,0.00,weatherlink.com 1.10,2013-08-12 18:11:00,
2013-08-12 14:26:00,88.0,75.0,29.98,NNW,348,2.0,4.0,65,0.00,,,0.00,weatherlink.com 1.10,2013-08-12 18:26:00,
2013-08-12 14:41:00,87.0,74.0,29.97,WNW,302,2.0,6.0,66,0.00,,,0.00,weatherlink.com 1.10,2013-08-12 18:41:00,
2013-08-12 14:56:00,88.0,77.0,29.96,West,277,1.0,3.0,70,0.00,,,0.00,weatherlink.com 1.10,2013-08-12 18:56:00,
2013-08-12 15:11:00,88.1,76.0,29.95,NNW,338,3.0,4.0,68,0.00,,,0.00,weatherlink.com 1.10,2013-08-12 19:11:00,
2013-08-12 15:26:00,88.6,77.0,29.95,West,281,1.0,5.0,68,0.00,,,0.00,weatherlink.com 1.10,2013-08-12 19:26:00,
2013-08-12 15:41:00,87.6,76.0,29.94,West,281,1.0,2.0,68,0.00,,,0.00,weatherlink.com 1.10,2013-08-12 19:41:00,
2013-08-12 15:56:00,88.8,76.0,29.94,West,260,1.0,4.0,65,0.00,,,0.00,weatherlink.com 1.10,2013-08-12 19:56:00,
2013-08-12 16:11:00,85.1,78.0,29.94,South,170,1.0,3.0,78,0.00,,,0.00,weatherlink.com 1.10,2013-08-12 20:11:00,
2013-08-12 16:26:00,83.7,79.0,29.94,West,271,0.0,2.0,86,0.00,,,0.00,weatherlink.com 1.10,2013-08-12 20:26:00,
2013-08-12 16:41:00,83.0,79.0,29.94,West,271,0.0,1.0,86,0.00,,,0.00,weatherlink.com 1.10,2013-08-12 20:41:00,
2013-08-12 16:56:00,83.6,79.0,29.93,West,271,0.0,1.0,86,0.00,,,0.00,weatherlink.com 1.10,2013-08-12 20:56:00,
2013-08-12 17:11:00,86.1,78.0,29.94,WSW,253,0.0,6.0,77,0.00,,,0.00,weatherlink.com 1.10,2013-08-12 21:11:00,
2013-08-12 17:26:00,84.5,78.0,29.95,West,281,0.0,3.0,80,0.00,,,0.00,weatherlink.com 1.10,2013-08-12 21:26:00,
2013-08-12 17:41:00,82.7,78.0,29.94,NW,308,0.0,2.0,86,0.00,,,0.00,weatherlink.com 1.10,2013-08-12 21:41:00,
2013-08-12 17:56:00,81.8,79.0,29.95,NW,308,0.0,1.0,90,0.00,,,0.00,weatherlink.com 1.10,2013-08-12 21:56:00,
2013-08-12 18:11:00,81.0,78.0,29.93,NW,308,0.0,1.0,90,0.00,,,0.00,weatherlink.com 1.10,2013-08-12 22:11:00,
2013-08-12 18:26:00,80.3,78.0,29.92,NW,308,0.0,1.0,91,0.00,,,0.00,weatherlink.com 1.10,2013-08-12 22:26:00,
2013-08-12 18:41:00,80.8,77.0,29.92,SW,233,1.0,6.0,88,0.00,,,0.00,weatherlink.com 1.10,2013-08-12 22:41:00,
2013-08-12 18:56:00,80.8,76.0,29.92,WNW,296,4.0,7.0,84,0.00,,,0.00,weatherlink.com 1.10,2013-08-12 22:56:00,
2013-08-12 19:11:00,79.9,75.0,29.92,WNW,298,0.0,7.0,86,0.00,,,0.00,weatherlink.com 1.10,2013-08-12 23:11:00,
2013-08-12 19:26:00,79.6,75.0,29.92,West,263,1.0,2.0,86,0.00,,,0.00,weatherlink.com 1.10,2013-08-12 23:26:00,
2013-08-12 19:41:00,79.4,75.0,29.92,NNW,348,1.0,3.0,86,0.00,,,0.00,weatherlink.com 1.10,2013-08-12 23:41:00,
2013-08-12 19:56:00,78.7,75.0,29.93,West,277,2.0,3.0,88,0.00,,,0.00,weatherlink.com 1.10,2013-08-12 23:56:00,
2013-08-12 20:11:00,78.5,74.0,29.93,NW,316,1.0,3.0,87,0.00,,,0.00,weatherlink.com 1.10,2013-08-13 00:11:00,
2013-08-12 20:26:00,77.8,74.0,29.93,NW,316,1.0,2.0,88,0.00,,,0.00,weatherlink.com 1.10,2013-08-13 00:26:00,
2013-08-12 20:41:00,77.5,74.0,29.94,NNW,346,0.0,2.0,88,0.00,,,0.00,weatherlink.com 1.10,2013-08-13 00:41:00,
2013-08-12 20:56:00,75.7,74.0,29.93,NNW,346,1.0,2.0,93,0.00,,,0.00,weatherlink.com 1.10,2013-08-13 00:56:00,
2013-08-12 21:11:00,75.2,73.0,29.94,NNW,346,0.0,1.0,94,0.00,,,0.00,weatherlink.com 1.10,2013-08-13 01:11:00,
2013-08-12 21:26:00,74.8,73.0,29.95,NNW,346,0.0,0.0,94,0.00,,,0.00,weatherlink.com 1.10,2013-08-13 01:26:00,
2013-08-12 21:41:00,74.4,73.0,29.95,NNW,346,0.0,1.0,95,0.00,,,0.00,weatherlink.com 1.10,2013-08-13 01:41:00,
2013-08-12 21:56:00,74.2,73.0,29.94,NNW,346,1.0,2.0,95,0.00,,,0.00,weatherlink.com 1.10,2013-08-13 01:56:00,
2013-08-12 22:11:00,73.9,72.0,29.94,NNW,346,0.0,1.0,95,0.00,,,0.00,weatherlink.com 1.10,2013-08-13 02:11:00,
2013-08-12 22:26:00,73.6,72.0,29.94,NNW,346,0.0,0.0,95,0.00,,,0.00,weatherlink.com 1.10,2013-08-13 02:26:00,
2013-08-12 22:41:00,73.5,72.0,29.94,NNW,346,0.0,0.0,95,0.00,,,0.00,weatherlink.com 1.10,2013-08-13 02:41:00,
2013-08-12 22:56:00,73.1,72.0,29.94,NNW,346,0.0,0.0,95,0.00,,,0.00,weatherlink.com 1.10,2013-08-13 02:56:00,
2013-08-12 23:11:00,73.0,72.0,29.94,NNW,346,0.0,0.0,95,0.00,,,0.00,weatherlink.com 1.10,2013-08-13 03:11:00,
2013-08-12 23:26:00,72.7,71.0,29.94,NNW,346,0.0,0.0,95,0.00,,,0.00,weatherlink.com 1.10,2013-08-13 03:26:00,
2013-08-12 23:41:00,72.6,71.0,29.93,NNW,346,0.0,0.0,95,0.00,,,0.00,weatherlink.com 1.10,2013-08-13 03:41:00,
2013-08-12 23:56:00,72.5,71.0,29.93,NNW,346,0.0,0.0,95,0.00,,,0.00,weatherlink.com 1.10,2013-08-13 03:56:00,